الصفحة الرئيسية
METAR-TAF:

METAR-TAF

مطار :

Safford, أريزونا, الولايات المتحدة

دائرة عرض: 32-51-26N, خط طول: 109-38-08W, ارتفاع: 968 متر

مراقبة الطقس الحالي

تاريخ ووقت الإصدار 57 دقيقة قبل الساعة 02:51UTC
ريح 11 عقدة من الجنوب
درجة الحرارة 11°درجة مئوية
الرطوبة 40%
ضغط 1005 hPa
الرؤية: 16.1 كم
غيوم مفككة على ارتفاع 6500 قدم
ملبد بالغيوم على ارتفاع 8000 قدم

METAR: KSAD 220251Z AUTO 18011KT 10SM BKN065 OVC080 11/M02 A2969 RMK AO2 RAB07E16 SLPNO P0000 60000 T01061022 53009

زمن: 20:48 (03:48 UTC)


TAF: مفقودة

أرصاد الطقس والتوقعات من أكثر من 4000 مطار (تقارير الطقس للمطار METAR والتنبؤ بالطقس بالمطارTAF).

المحطات المتاحة هي النقط الصفراء والحمراء على الخريطة.

حرك المؤشر فوق النقطة لمعرفة اسم المحطة.

ثم انقر لمعرفة أرصاد وتوقعات الطقس.

لتغيير الخارطة: اضغط على الأزرار الخضراء مع رمز الصليب الأسود للتكبير. على الزر الأخضر مع شرطة للتصغير، أو على الأسهم الخضراء للخرائط المجاورة.


METAR-TAF: